createdAt,value
2022-08-28T00:01:59.134Z,3.60
2022-08-28T00:04:25.686Z,4.70
2022-08-28T00:06:52.241Z,4.15
2022-08-28T00:09:19.353Z,3.45
2022-08-28T00:11:47.178Z,3.28
2022-08-28T00:14:13.902Z,3.92
2022-08-28T00:16:40.674Z,3.75
2022-08-28T00:19:07.263Z,3.45
2022-08-28T00:21:33.905Z,4.40
2022-08-28T00:24:00.839Z,3.92
2022-08-28T00:26:46.273Z,3.90
2022-08-28T00:29:12.900Z,3.95
2022-08-28T00:31:39.745Z,4.13
2022-08-28T00:34:08.004Z,3.88
2022-08-28T00:36:36.048Z,4.35
2022-08-28T00:39:03.037Z,4.32
2022-08-28T00:41:31.300Z,4.75
2022-08-28T00:44:19.329Z,4.35
2022-08-28T00:46:48.472Z,4.22
2022-08-28T00:49:17.588Z,4.40
2022-08-28T00:52:03.154Z,4.45
2022-08-28T00:54:58.661Z,4.30
2022-08-28T00:57:37.276Z,5.32
2022-08-28T01:00:08.074Z,4.43
2022-08-28T01:02:34.691Z,4.90
2022-08-28T01:05:01.740Z,4.32
2022-08-28T01:07:28.597Z,4.85
2022-08-28T01:09:55.938Z,4.55
2022-08-28T01:12:29.643Z,4.57
2022-08-28T01:15:02.042Z,3.58
2022-08-28T01:17:32.982Z,4.20
2022-08-28T01:20:09.433Z,5.13
2022-08-28T01:22:43.236Z,5.10
2022-08-28T01:25:20.075Z,4.43
2022-08-28T01:27:46.913Z,4.88
2022-08-28T01:30:16.692Z,4.43
2022-08-28T01:32:47.635Z,4.47
2022-08-28T01:35:17.703Z,4.20
2022-08-28T01:37:45.745Z,4.60
2022-08-28T01:40:17.540Z,4.13
2022-08-28T01:42:45.131Z,3.97
2022-08-28T01:45:15.624Z,5.75
2022-08-28T01:47:44.250Z,4.55
2022-08-28T01:50:16.043Z,4.53
2022-08-28T01:52:42.817Z,4.82
2022-08-28T01:55:10.691Z,5.13
2022-08-28T01:57:48.205Z,4.70
2022-08-28T02:00:15.772Z,4.35
2022-08-28T02:02:42.361Z,4.70
2022-08-28T02:05:10.142Z,4.53
2022-08-28T02:07:37.349Z,4.53
2022-08-28T02:10:06.411Z,4.70
2022-08-28T02:12:32.937Z,4.45
2022-08-28T02:14:59.509Z,4.93
2022-08-28T02:17:26.077Z,4.32
2022-08-28T02:19:52.636Z,4.35
2022-08-28T02:22:19.164Z,5.63
2022-08-28T02:24:46.261Z,4.28
2022-08-28T02:27:12.791Z,5.85
2022-08-28T02:29:39.370Z,4.55
2022-08-28T02:32:06.148Z,4.45
2022-08-28T02:34:34.500Z,5.13
2022-08-28T02:37:01.026Z,4.65
2022-08-28T02:39:27.768Z,4.40
2022-08-28T02:41:54.356Z,4.95
2022-08-28T02:44:21.125Z,4.40
2022-08-28T02:46:47.661Z,4.47
2022-08-28T02:49:14.141Z,4.88
2022-08-28T02:51:40.668Z,4.53
2022-08-28T02:54:07.148Z,6.72
2022-08-28T02:56:34.326Z,4.93
2022-08-28T02:59:00.827Z,4.20
2022-08-28T03:01:27.483Z,4.30
2022-08-28T03:03:53.937Z,4.53
2022-08-28T03:06:20.890Z,4.63
2022-08-28T03:08:47.416Z,4.47
2022-08-28T03:11:13.905Z,4.40
2022-08-28T03:13:40.649Z,4.78
2022-08-28T03:16:07.375Z,5.03
2022-08-28T03:18:34.259Z,6.72
2022-08-28T03:21:01.109Z,4.80
2022-08-28T03:23:27.770Z,4.35
2022-08-28T03:25:55.487Z,4.45
2022-08-28T03:28:22.336Z,4.00
2022-08-28T03:30:49.696Z,5.07
2022-08-28T03:33:16.686Z,5.07
2022-08-28T03:35:43.446Z,4.15
2022-08-28T03:38:11.733Z,4.20
2022-08-28T03:40:43.025Z,3.90
2022-08-28T03:43:17.937Z,4.65
2022-08-28T03:46:15.381Z,4.53
2022-08-28T03:48:44.960Z,5.60
2022-08-28T03:51:19.539Z,4.85
2022-08-28T03:53:52.740Z,4.95
2022-08-28T03:56:24.567Z,4.70
2022-08-28T03:58:53.373Z,4.90
2022-08-28T04:01:20.692Z,4.97
2022-08-28T04:03:47.879Z,5.07
2022-08-28T04:06:15.933Z,4.25
2022-08-28T04:08:42.833Z,4.82
2022-08-28T04:11:10.093Z,4.55
2022-08-28T04:13:36.836Z,5.68
2022-08-28T04:16:10.765Z,4.70
2022-08-28T04:18:43.037Z,4.68
2022-08-28T04:21:16.359Z,4.32
2022-08-28T04:23:44.147Z,4.28
2022-08-28T04:26:13.597Z,5.28
2022-08-28T04:28:40.626Z,5.13
2022-08-28T04:31:08.227Z,5.15
2022-08-28T04:33:34.944Z,5.10
2022-08-28T04:36:07.908Z,4.38
2022-08-28T04:38:34.474Z,5.18
2022-08-28T04:41:12.795Z,5.10
2022-08-28T04:43:39.820Z,5.22
2022-08-28T04:46:08.898Z,4.93
2022-08-28T04:48:35.968Z,5.57
2022-08-28T04:51:05.568Z,4.97
2022-08-28T04:53:33.033Z,5.07
2022-08-28T04:56:00.628Z,5.05
2022-08-28T04:58:27.822Z,4.93
2022-08-28T05:00:55.022Z,5.18
2022-08-28T05:03:21.671Z,4.60
2022-08-28T05:05:51.895Z,4.95
2022-08-28T05:08:21.467Z,4.90
2022-08-28T05:10:48.257Z,4.20
2022-08-28T05:13:16.132Z,4.57
2022-08-28T05:15:46.887Z,4.85
2022-08-28T05:18:14.710Z,5.22
2022-08-28T05:20:44.885Z,6.72
2022-08-28T05:23:13.449Z,5.28
2022-08-28T05:25:42.758Z,4.90
2022-08-28T05:28:11.985Z,5.75
2022-08-28T05:30:40.770Z,5.30
2022-08-28T05:33:08.616Z,4.53
2022-08-28T05:35:42.367Z,4.47
2022-08-28T05:38:09.573Z,5.13
2022-08-28T05:40:43.340Z,4.80
2022-08-28T05:43:10.536Z,4.20
2022-08-28T05:45:37.210Z,6.10
2022-08-28T05:48:04.257Z,5.00
2022-08-28T05:50:31.307Z,4.38
2022-08-28T05:52:57.945Z,5.18
2022-08-28T05:55:24.567Z,4.70
2022-08-28T05:57:51.143Z,4.78
2022-08-28T06:00:18.380Z,5.25
2022-08-28T06:02:45.047Z,4.32
2022-08-28T06:05:13.003Z,4.32
2022-08-28T06:07:40.987Z,4.47
2022-08-28T06:10:07.985Z,4.07
2022-08-28T06:12:37.716Z,4.07
2022-08-28T06:15:05.931Z,4.47
2022-08-28T06:17:32.506Z,4.47
2022-08-28T06:19:58.980Z,4.32
2022-08-28T06:22:25.960Z,4.18
2022-08-28T06:24:52.507Z,4.00
2022-08-28T06:27:19.064Z,4.10
2022-08-28T06:29:45.836Z,4.60
2022-08-28T06:32:12.348Z,3.67
2022-08-28T06:34:39.300Z,3.90
2022-08-28T06:37:05.887Z,4.75
2022-08-28T06:39:32.403Z,3.65
2022-08-28T06:41:58.932Z,3.72
2022-08-28T06:44:25.495Z,3.85
2022-08-28T06:46:54.592Z,3.50
2022-08-28T06:49:21.428Z,3.95
2022-08-28T06:51:48.544Z,3.22
2022-08-28T06:54:22.730Z,4.07
2022-08-28T06:56:50.004Z,3.88
2022-08-28T06:59:16.491Z,3.30
2022-08-28T07:01:43.129Z,3.65
2022-08-28T07:04:11.866Z,4.20
2022-08-28T07:06:40.894Z,3.78
2022-08-28T07:09:11.181Z,3.35
2022-08-28T07:11:39.354Z,3.03
2022-08-28T07:14:06.786Z,3.35
2022-08-28T07:16:38.085Z,3.38
2022-08-28T07:19:10.482Z,2.97
2022-08-28T07:21:39.522Z,6.47
2022-08-28T07:24:07.512Z,3.00
2022-08-28T07:26:35.638Z,3.30
2022-08-28T07:29:10.898Z,2.85
2022-08-28T07:31:41.282Z,2.80
2022-08-28T07:34:09.733Z,2.80
2022-08-28T07:36:36.831Z,3.58
2022-08-28T07:39:05.138Z,3.05
2022-08-28T07:41:33.795Z,2.53
2022-08-28T07:44:18.856Z,2.53
2022-08-28T07:46:45.863Z,2.85
2022-08-28T07:49:16.886Z,3.03
2022-08-28T07:51:43.346Z,3.03
2022-08-28T07:54:17.923Z,3.83
2022-08-28T07:56:45.511Z,3.60
2022-08-28T07:59:16.619Z,3.08
2022-08-28T08:01:46.532Z,2.83
2022-08-28T08:04:15.963Z,3.45
2022-08-28T08:06:43.411Z,2.88
2022-08-28T08:09:12.916Z,2.83
2022-08-28T08:11:39.443Z,3.20
2022-08-28T08:14:06.174Z,3.10
2022-08-28T08:16:35.548Z,3.08
2022-08-28T08:19:03.344Z,2.45
2022-08-28T08:21:30.686Z,3.05
2022-08-28T08:23:57.994Z,2.45
2022-08-28T08:26:26.110Z,2.67
2022-08-28T08:28:52.650Z,2.83
2022-08-28T08:31:22.173Z,2.47
2022-08-28T08:33:55.192Z,2.63
2022-08-28T08:36:24.293Z,3.00
2022-08-28T08:39:00.001Z,2.47
2022-08-28T08:41:30.294Z,2.88
2022-08-28T08:43:59.341Z,2.83
2022-08-28T08:46:48.717Z,2.50
2022-08-28T08:49:18.907Z,2.70
2022-08-28T08:52:13.949Z,2.55
2022-08-28T08:54:43.111Z,2.33
2022-08-28T08:57:12.895Z,3.10
2022-08-28T08:59:39.984Z,3.00
2022-08-28T09:02:14.141Z,2.63
2022-08-28T09:04:52.912Z,2.70
2022-08-28T09:07:37.884Z,2.58
2022-08-28T09:10:11.165Z,2.72
2022-08-28T09:13:02.290Z,2.13
2022-08-28T09:15:40.220Z,2.70
2022-08-28T09:18:19.303Z,2.67
2022-08-28T09:20:50.591Z,2.80
2022-08-28T09:23:17.348Z,2.75
2022-08-28T09:25:52.817Z,2.15
2022-08-28T09:28:50.607Z,2.15
2022-08-28T09:31:31.875Z,2.15
2022-08-28T09:34:24.371Z,2.53
2022-08-28T09:36:52.976Z,2.42
2022-08-28T09:39:27.013Z,2.70
2022-08-28T09:42:37.037Z,2.25
2022-08-28T09:45:14.593Z,2.00
2022-08-28T09:47:46.684Z,2.60
2022-08-28T09:50:31.983Z,2.53
2022-08-28T09:53:20.485Z,2.07
2022-08-28T09:56:19.599Z,1.75
2022-08-28T09:58:56.281Z,2.17
2022-08-28T10:01:44.583Z,2.38
2022-08-28T10:04:20.700Z,2.80
2022-08-28T10:07:05.378Z,2.20
2022-08-28T10:10:12.648Z,2.40
2022-08-28T10:13:23.844Z,2.40
2022-08-28T10:15:59.533Z,2.25
2022-08-28T10:19:02.105Z,2.10
2022-08-28T10:21:53.436Z,2.50
2022-08-28T10:24:52.370Z,2.60
2022-08-28T10:27:34.161Z,2.60
2022-08-28T10:30:12.499Z,2.22
2022-08-28T10:33:07.207Z,2.53
2022-08-28T10:35:53.096Z,2.53
2022-08-28T10:38:30.713Z,2.30
2022-08-28T10:41:08.377Z,2.20
2022-08-28T10:43:49.615Z,2.30
2022-08-28T10:46:27.208Z,1.90
2022-08-28T10:49:04.780Z,2.17
2022-08-28T10:51:52.174Z,2.47
2022-08-28T10:54:22.721Z,2.47
2022-08-28T10:57:18.589Z,1.70
2022-08-28T11:02:16.606Z,2.25
2022-08-28T11:04:46.019Z,2.75
2022-08-28T11:07:21.234Z,2.58
2022-08-28T11:09:48.802Z,1.90
2022-08-28T11:12:19.679Z,2.00
2022-08-28T11:14:49.443Z,2.40
2022-08-28T11:17:22.092Z,2.40
2022-08-28T11:20:20.521Z,2.33
2022-08-28T11:23:07.238Z,1.80
2022-08-28T11:25:51.955Z,1.48
2022-08-28T11:28:22.368Z,3.03
2022-08-28T11:31:10.297Z,1.85
2022-08-28T11:33:52.987Z,1.90
2022-08-28T11:36:19.554Z,2.00
2022-08-28T11:38:46.459Z,2.15
2022-08-28T11:41:21.759Z,1.80
2022-08-28T11:44:09.047Z,2.40
2022-08-28T11:46:36.753Z,2.10
2022-08-28T11:49:05.956Z,2.15
2022-08-28T11:52:00.470Z,2.25
2022-08-28T11:54:54.273Z,1.80
2022-08-28T11:57:54.195Z,1.77
2022-08-28T12:00:27.075Z,1.73
2022-08-28T12:03:08.468Z,2.47
2022-08-28T12:05:48.348Z,3.42
2022-08-28T12:08:54.903Z,1.77
2022-08-28T12:11:39.604Z,1.90
2022-08-28T12:14:40.955Z,1.38
2022-08-28T12:17:17.990Z,2.05
2022-08-28T12:19:55.895Z,1.80
2022-08-28T12:22:43.849Z,1.50
2022-08-28T12:25:22.560Z,1.75
2022-08-28T12:27:49.660Z,1.83
2022-08-28T12:30:47.100Z,1.98
2022-08-28T12:33:24.939Z,1.73
2022-08-28T12:35:51.528Z,1.70
2022-08-28T12:38:21.610Z,2.92
2022-08-28T12:40:50.998Z,2.00
2022-08-28T12:43:28.350Z,2.78
2022-08-28T12:45:58.926Z,1.95
2022-08-28T12:48:31.618Z,3.83
2022-08-28T12:50:58.462Z,2.22
2022-08-28T12:53:26.720Z,1.88
2022-08-28T12:55:55.453Z,1.88
2022-08-28T12:58:48.455Z,1.95
2022-08-28T13:01:21.174Z,2.15
2022-08-28T13:03:54.696Z,1.77
2022-08-28T13:06:29.048Z,1.60
2022-08-28T13:09:06.783Z,1.65
2022-08-28T13:11:44.734Z,1.92
2022-08-28T13:14:11.557Z,1.73
2022-08-28T13:16:45.379Z,1.70
2022-08-28T13:19:30.903Z,1.48
2022-08-28T13:22:01.788Z,1.20
2022-08-28T13:24:37.260Z,1.38
2022-08-28T13:27:09.370Z,1.75
2022-08-28T13:29:36.880Z,1.70
2022-08-28T13:32:07.170Z,1.95
2022-08-28T13:34:38.887Z,1.38
2022-08-28T13:37:40.946Z,1.58
2022-08-28T13:40:19.719Z,1.80
2022-08-28T13:43:02.530Z,1.33
2022-08-28T13:45:31.562Z,1.17
2022-08-28T13:48:11.468Z,1.30
2022-08-28T13:50:42.068Z,1.73
2022-08-28T13:53:12.247Z,2.05
2022-08-28T13:55:39.223Z,1.60
2022-08-28T13:58:05.783Z,1.40
2022-08-28T14:00:36.167Z,1.40
2022-08-28T14:03:21.327Z,1.73
2022-08-28T14:05:48.109Z,1.25
2022-08-28T14:08:14.987Z,1.92
2022-08-28T14:10:42.336Z,1.80
2022-08-28T14:13:08.951Z,1.45
2022-08-28T14:15:35.718Z,1.98
2022-08-28T14:18:02.255Z,1.60
2022-08-28T14:20:29.258Z,1.63
2022-08-28T14:22:55.816Z,1.67
2022-08-28T14:25:22.391Z,1.70
2022-08-28T14:27:49.400Z,2.08
2022-08-28T14:30:16.434Z,1.85
2022-08-28T14:32:43.119Z,1.70
2022-08-28T14:35:09.742Z,1.98
2022-08-28T14:37:36.249Z,1.50
2022-08-28T14:40:03.812Z,1.42
2022-08-28T14:42:30.415Z,1.70
2022-08-28T14:44:56.998Z,1.60
2022-08-28T14:47:24.891Z,1.80
2022-08-28T14:49:51.555Z,1.88
2022-08-28T14:52:19.438Z,1.77
2022-08-28T14:54:46.242Z,1.80
2022-08-28T14:57:13.569Z,1.65
2022-08-28T14:59:40.192Z,1.92
2022-08-28T15:02:07.787Z,1.90
2022-08-28T15:04:35.354Z,1.67
2022-08-28T15:07:06.382Z,1.48
2022-08-28T15:09:36.580Z,1.50
2022-08-28T15:12:03.376Z,1.75
2022-08-28T15:14:30.352Z,1.27
2022-08-28T15:16:57.048Z,1.67
2022-08-28T15:19:24.114Z,1.27
2022-08-28T15:21:53.686Z,1.50
2022-08-28T15:24:27.964Z,1.95
2022-08-28T15:26:54.965Z,1.50
2022-08-28T15:29:21.615Z,1.35
2022-08-28T15:31:50.065Z,1.92
2022-08-28T15:34:20.932Z,1.77
2022-08-28T15:36:49.181Z,1.23
2022-08-28T15:39:41.368Z,1.83
2022-08-28T15:42:09.016Z,1.48
2022-08-28T15:44:35.569Z,2.50
2022-08-28T15:47:03.135Z,1.95
2022-08-28T15:49:32.258Z,1.45
2022-08-28T15:52:03.129Z,1.67
2022-08-28T15:54:31.806Z,2.25
2022-08-28T15:56:58.424Z,1.40
2022-08-28T15:59:37.968Z,1.90
2022-08-28T16:02:14.356Z,1.60
2022-08-28T16:04:41.001Z,2.03
2022-08-28T16:07:07.567Z,1.30
2022-08-28T16:09:34.087Z,1.90
2022-08-28T16:12:00.622Z,2.45
2022-08-28T16:14:27.146Z,1.33
2022-08-28T16:16:53.758Z,2.15
2022-08-28T16:19:20.496Z,2.05
2022-08-28T16:21:47.000Z,1.63
2022-08-28T16:24:13.525Z,1.98
2022-08-28T16:26:40.197Z,1.88
2022-08-28T16:29:06.774Z,1.90
2022-08-28T16:31:34.299Z,2.13
2022-08-28T16:34:02.327Z,1.60
2022-08-28T16:36:29.991Z,1.90
2022-08-28T16:39:00.364Z,1.75
2022-08-28T16:41:31.969Z,1.80
2022-08-28T16:43:59.185Z,1.95
2022-08-28T16:46:26.837Z,1.90
2022-08-28T16:48:54.274Z,2.13
2022-08-28T16:51:21.495Z,3.35
2022-08-28T16:53:48.325Z,2.22
2022-08-28T16:56:17.100Z,2.08
2022-08-28T17:27:42.175Z,2.50
2022-08-28T17:30:09.690Z,2.15
2022-08-28T17:32:36.948Z,2.50
2022-08-28T17:35:05.394Z,2.15
2022-08-28T17:37:32.393Z,1.88
2022-08-28T17:39:59.157Z,2.13
2022-08-28T17:42:25.949Z,2.08
2022-08-28T17:44:52.512Z,2.00
2022-08-28T17:47:19.417Z,2.22
2022-08-28T17:49:54.841Z,2.13
2022-08-28T17:52:21.357Z,2.30
2022-08-28T17:54:47.826Z,2.40
2022-08-28T17:57:16.515Z,2.22
2022-08-28T17:59:43.060Z,3.15
2022-08-28T18:02:09.828Z,2.17
2022-08-28T18:04:36.794Z,2.40
2022-08-28T18:07:03.371Z,2.25
2022-08-28T18:09:29.945Z,2.65
2022-08-28T18:11:56.474Z,2.20
2022-08-28T18:14:23.074Z,2.17
2022-08-28T18:16:49.643Z,2.65
2022-08-28T18:19:16.644Z,2.60
2022-08-28T18:21:43.829Z,1.98
2022-08-28T18:24:12.901Z,2.20
2022-08-28T18:26:40.946Z,2.47
2022-08-28T18:29:07.490Z,2.65
2022-08-28T18:31:34.047Z,2.05
2022-08-28T18:34:00.719Z,2.53
2022-08-28T18:36:27.725Z,2.65
2022-08-28T18:38:54.268Z,1.92
2022-08-28T18:41:21.212Z,2.75
2022-08-28T18:43:55.954Z,2.15
2022-08-28T18:46:24.592Z,2.47
2022-08-28T18:48:53.140Z,2.47
2022-08-28T18:51:21.694Z,2.30
2022-08-28T18:53:48.755Z,2.72
2022-08-28T18:56:16.118Z,2.33
2022-08-28T18:58:43.253Z,2.25
2022-08-28T19:01:10.247Z,2.25
2022-08-28T19:03:36.911Z,2.70
2022-08-28T19:06:04.236Z,2.47
2022-08-28T19:08:32.846Z,2.50
2022-08-28T19:10:59.728Z,2.40
2022-08-28T19:13:27.813Z,2.35
2022-08-28T19:15:54.433Z,2.75
2022-08-28T19:18:21.025Z,2.90
2022-08-28T19:20:48.020Z,2.50
2022-08-28T19:23:17.669Z,3.20
2022-08-28T19:25:45.606Z,3.10
2022-08-28T19:28:12.226Z,2.50
2022-08-28T19:30:38.800Z,3.33
2022-08-28T19:33:05.894Z,2.28
2022-08-28T19:35:33.708Z,2.65
2022-08-28T19:38:00.395Z,2.72
2022-08-28T19:40:27.445Z,2.60
2022-08-28T19:42:54.129Z,3.63
2022-08-28T19:45:20.961Z,2.47
2022-08-28T19:47:47.563Z,2.80
2022-08-28T19:50:15.590Z,2.30
2022-08-28T19:52:43.405Z,2.33
2022-08-28T19:55:19.273Z,2.08
2022-08-28T19:57:46.872Z,1.90
2022-08-28T20:00:15.070Z,2.03
2022-08-28T20:02:41.576Z,2.75
2022-08-28T20:05:08.696Z,2.55
2022-08-28T20:07:35.228Z,2.35
2022-08-28T20:10:02.072Z,2.08
2022-08-28T20:12:28.594Z,2.67
2022-08-28T20:14:55.154Z,1.88
2022-08-28T20:17:22.014Z,2.17
2022-08-28T20:19:48.548Z,2.42
2022-08-28T20:22:15.242Z,1.85
2022-08-28T20:24:41.963Z,1.90
2022-08-28T20:27:08.530Z,2.10
2022-08-28T20:29:35.108Z,2.67
2022-08-28T20:32:02.109Z,2.13
2022-08-28T20:34:29.123Z,1.85
2022-08-28T20:36:55.741Z,1.80
2022-08-28T20:39:22.590Z,2.15
2022-08-28T20:41:49.705Z,1.90
2022-08-28T20:44:18.756Z,1.90
2022-08-28T20:46:51.256Z,2.03
2022-08-28T20:49:21.655Z,1.90
2022-08-28T20:51:56.531Z,1.98
2022-08-28T20:54:27.934Z,1.80
2022-08-28T20:56:57.218Z,2.42
2022-08-28T20:59:24.321Z,1.70
2022-08-28T21:01:56.133Z,2.17
2022-08-28T21:04:23.312Z,2.00
2022-08-28T21:06:50.488Z,1.60
2022-08-28T21:09:17.946Z,2.00
2022-08-28T21:11:44.860Z,1.90
2022-08-28T21:14:11.594Z,1.80
2022-08-28T21:16:39.310Z,2.00
2022-08-28T21:19:15.807Z,2.15
2022-08-28T21:21:43.678Z,1.67
2022-08-28T21:24:12.513Z,2.00
2022-08-28T21:26:48.966Z,1.65
2022-08-28T21:29:16.826Z,1.90
2022-08-28T21:31:44.414Z,1.75
2022-08-28T21:34:11.777Z,1.50
2022-08-28T21:36:41.545Z,2.22
2022-08-28T21:39:08.050Z,2.10
2022-08-28T21:41:34.695Z,1.95
2022-08-28T21:44:01.339Z,2.17
2022-08-28T21:46:28.154Z,2.15
2022-08-28T21:48:56.456Z,1.95
2022-08-28T21:51:24.461Z,1.80
2022-08-28T21:53:52.141Z,2.00
2022-08-28T21:56:22.830Z,1.98
2022-08-28T21:58:50.548Z,2.20
2022-08-28T22:01:18.272Z,2.17
2022-08-28T22:03:44.983Z,1.95
2022-08-28T22:06:14.394Z,1.98
2022-08-28T22:08:41.984Z,1.80
2022-08-28T22:11:09.617Z,2.00
2022-08-28T22:13:37.092Z,1.90
2022-08-28T22:16:05.402Z,2.03
2022-08-28T22:18:34.187Z,2.28
2022-08-28T22:21:20.272Z,2.13
2022-08-28T22:26:20.147Z,1.88
2022-08-28T22:28:46.957Z,2.15
2022-08-28T22:31:13.857Z,1.98
2022-08-28T22:33:41.325Z,2.28
2022-08-28T22:36:09.848Z,1.63
2022-08-28T22:38:37.979Z,2.13
2022-08-28T22:41:04.996Z,2.20
2022-08-28T22:43:31.595Z,2.25
2022-08-28T22:45:58.169Z,1.73
2022-08-28T22:48:24.729Z,2.00
2022-08-28T22:50:51.224Z,2.00
2022-08-28T22:53:17.812Z,2.10
2022-08-28T22:55:44.880Z,2.13
2022-08-28T22:58:12.856Z,2.22
2022-08-28T23:00:41.694Z,2.25
2022-08-28T23:03:08.526Z,2.63
2022-08-28T23:05:35.227Z,3.40
2022-08-28T23:08:01.796Z,1.92
2022-08-28T23:10:48.294Z,2.13
2022-08-28T23:13:15.694Z,2.05
2022-08-28T23:15:43.445Z,2.30
2022-08-28T23:18:10.986Z,1.70
2022-08-28T23:20:37.578Z,2.33
2022-08-28T23:23:04.125Z,2.40
2022-08-28T23:25:30.712Z,2.30
2022-08-28T23:27:57.291Z,2.05
2022-08-28T23:30:24.385Z,2.08
2022-08-28T23:32:52.957Z,2.13
2022-08-28T23:35:20.559Z,2.15
2022-08-28T23:37:51.944Z,2.83
2022-08-28T23:40:21.959Z,3.05
2022-08-28T23:42:48.914Z,2.08
2022-08-28T23:45:17.417Z,2.00
2022-08-28T23:47:44.953Z,3.22
2022-08-28T23:50:15.769Z,2.00
2022-08-28T23:52:43.124Z,2.05
2022-08-28T23:55:12.273Z,2.17
2022-08-28T23:57:38.836Z,2.20
